Time;durP1;ratioP1;P1;durP2;ratioP2;P2;SDS_P1;SDS_P2;PMS_P1;PMS_P2;Temp;Humidity;BMP_temperature;BMP_pressure;BME280_temperature;BME280_humidity;BME280_pressure;Samples;Min_cycle;Max_cycle;Signal;HPM_P1;HPM_P2
2022/10/18 00:03:25;;;;;;;9.30;6.30;;;;;;;14.38;64.70;99620.39;420729;1299;109484;-41
2022/10/18 00:13:33;;;;;;;11.30;7.40;;;;;;;14.31;64.86;99624.94;420525;1299;97468;-40
2022/10/18 00:23:40;;;;;;;14.90;7.80;;;;;;;14.18;64.93;99635.02;420926;1299;97879;-40
2022/10/18 00:33:50;;;;;;;10.20;7.80;;;;;;;13.99;64.98;99637.51;420745;1296;109803;-40
2022/10/18 00:43:55;;;;;;;11.60;8.00;;;;;;;13.87;65.08;99640.82;421036;1298;107881;-39
2022/10/18 00:54:02;;;;;;;8.80;5.70;;;;;;;13.83;64.90;99635.45;420830;1284;97692;-39
2022/10/18 01:04:10;;;;;;;11.90;6.80;;;;;;;13.88;65.10;99627.43;421667;1261;109484;-40
2022/10/18 01:14:18;;;;;;;13.30;6.30;;;;;;;13.94;65.10;99614.61;420302;1301;109724;-40
2022/10/18 01:24:44;;;;;;;13.40;8.00;;;;;;;13.94;65.05;99606.06;420465;1292;97914;-40
2022/10/18 01:34:57;;;;;;;9.70;7.10;;;;;;;13.86;64.91;99591.30;420342;1291;109045;-40
2022/10/18 01:45:06;;;;;;;10.70;7.10;;;;;;;13.81;64.78;99571.96;421083;1295;107885;-41
2022/10/18 01:55:14;;;;;;;8.80;6.60;;;;;;;13.81;64.72;99559.85;420790;1298;97879;-41
2022/10/18 02:05:19;;;;;;;10.20;6.20;;;;;;;13.89;64.66;99549.34;420777;1298;110916;-40
2022/10/18 02:15:31;;;;;;;8.00;5.80;;;;;;;13.97;64.27;99551.91;420991;1294;107970;-40
2022/10/18 02:25:38;;;;;;;9.00;4.70;;;;;;;14.08;64.29;99552.75;420839;1290;97755;-39
2022/10/18 02:35:44;;;;;;;7.10;5.20;;;;;;;14.24;63.88;99553.65;420842;1291;108660;-39
2022/10/18 02:55:57;;;;;;;8.50;5.60;;;;;;;14.26;63.31;99558.07;420782;1298;97685;-39
2022/10/18 03:06:03;;;;;;;8.80;5.80;;;;;;;14.18;63.38;99555.42;421054;1298;97762;-39
2022/10/18 03:16:11;;;;;;;10.30;5.90;;;;;;;14.06;63.27;99554.88;420739;1298;222355;-40
2022/10/18 03:26:20;;;;;;;10.70;6.30;;;;;;;13.93;63.39;99548.17;420695;1291;107814;-41
2022/10/18 03:36:26;;;;;;;;;;;;;;;13.84;63.29;99553.70;420926;1298;98249;-41
2022/10/18 03:46:33;;;;;;;11.00;6.00;;;;;;;13.78;63.49;99557.23;420867;1291;110777;-42
2022/10/18 03:56:40;;;;;;;11.80;7.40;;;;;;;13.68;63.79;99567.40;421124;1291;106883;-39
2022/10/18 04:06:47;;;;;;;9.70;7.10;;;;;;;13.52;63.85;99575.48;420683;1298;97883;-41
2022/10/18 04:16:53;;;;;;;11.70;7.00;;;;;;;13.37;63.94;99571.30;420956;1298;110396;-39
2022/10/18 04:27:01;;;;;;;10.90;7.10;;;;;;;13.27;64.13;99564.86;421050;1298;108585;-40
2022/10/18 04:37:08;;;;;;;13.50;6.80;;;;;;;13.19;64.32;99560.16;421138;1299;98085;-40
2022/10/18 04:47:15;;;;;;;20.20;5.90;;;;;;;13.25;64.28;99553.23;420907;1297;98297;-41
2022/10/18 04:57:22;;;;;;;10.60;6.80;;;;;;;13.34;64.33;99553.28;420921;1298;108153;-40
2022/10/18 05:07:29;;;;;;;11.20;7.10;;;;;;;13.38;64.36;99555.11;421032;1292;97832;-41
2022/10/18 05:17:37;;;;;;;11.20;6.30;;;;;;;13.39;64.23;99541.33;420651;1298;110899;-40
2022/10/18 05:27:44;;;;;;;12.00;5.70;;;;;;;13.42;64.04;99540.55;421138;1298;107895;-40
2022/10/18 05:37:51;;;;;;;21.20;6.60;;;;;;;13.49;63.94;99545.32;420970;1294;97675;-42
2022/10/18 05:47:58;;;;;;;33.40;7.00;;;;;;;13.60;63.79;99538.05;421005;1298;97832;-41
2022/10/18 06:08:12;;;;;;;10.90;5.90;;;;;;;13.90;63.38;99542.11;421136;1298;108339;-41
2022/10/18 06:18:19;;;;;;;7.40;6.20;;;;;;;14.10;63.26;99539.70;421504;1298;97924;-41
2022/10/18 06:28:26;;;;;;;8.70;5.60;;;;;;;14.28;62.96;99551.52;420908;1298;97902;-40
2022/10/18 06:38:34;;;;;;;11.40;5.70;;;;;;;14.47;62.62;99553.63;420901;1294;109772;-39
2022/10/18 06:48:41;;;;;;;10.30;5.80;;;;;;;14.70;62.45;99548.16;420746;1294;106988;-39
2022/10/18 06:58:49;;;;;;;9.00;5.60;;;;;;;15.20;62.05;99547.53;420623;1298;97886;-39
2022/10/18 07:08:55;;;;;;;8.90;5.80;;;;;;;16.08;61.49;99544.88;420960;1294;110594;-40
2022/10/18 07:19:03;;;;;;;8.80;5.10;;;;;;;17.29;60.90;99545.42;420854;1285;108186;-40
2022/10/18 07:39:18;;;;;;;8.70;5.70;;;;;;;19.02;58.69;99541.23;420807;1289;108868;-43
2022/10/18 07:49:22;;;;;;;10.50;6.00;;;;;;;19.88;57.59;99539.15;420880;1287;109434;-43
2022/10/18 07:59:29;;;;;;;12.50;5.90;;;;;;;19.72;56.63;99540.70;420874;1291;97917;-41
2022/10/18 08:09:38;;;;;;;14.00;6.00;;;;;;;19.86;55.59;99541.08;420711;1298;110435;-40
2022/10/18 08:19:46;;;;;;;12.40;5.80;;;;;;;19.55;54.81;99533.90;420801;1298;108295;-40
2022/10/18 08:30:14;;;;;;;8.50;5.20;;;;;;;18.99;54.53;99531.92;420808;1291;97265;-40
2022/10/18 08:40:22;;;;;;;15.50;6.90;;;;;;;18.77;54.95;99521.28;420705;1286;110605;-41
2022/10/18 08:50:27;;;;;;;12.10;7.40;;;;;;;19.10;54.94;99516.20;420789;1299;107011;-41
2022/10/18 09:00:43;;;;;;;11.40;6.40;;;;;;;19.54;54.65;99508.74;420936;1290;97898;-42
2022/10/18 09:10:51;;;;;;;7.50;6.20;;;;;;;19.94;54.29;99506.35;420834;1304;109765;-39
2022/10/18 09:21:00;;;;;;;7.00;6.30;;;;;;;20.38;53.97;99495.98;420866;1299;106837;-41
2022/10/18 09:31:15;;;;;;;14.80;7.10;;;;;;;20.54;53.40;99483.48;420817;1298;97921;-40
2022/10/18 09:41:27;;;;;;;12.70;7.50;;;;;;;20.65;52.97;99478.20;420727;1295;110105;-40
2022/10/18 09:51:37;;;;;;;11.30;6.10;;;;;;;20.81;53.13;99471.61;420787;1302;107390;-39
2022/10/18 10:01:44;;;;;;;7.60;6.80;;;;;;;21.14;52.85;99462.52;420746;1294;97883;-39
2022/10/18 10:11:54;;;;;;;10.80;7.00;;;;;;;21.03;52.34;99448.81;420860;1288;108719;-40
2022/10/18 10:22:00;;;;;;;12.20;7.40;;;;;;;21.14;52.52;99436.70;420722;1298;106745;-42
2022/10/18 10:32:12;;;;;;;12.50;6.80;;;;;;;21.20;52.70;99418.52;420922;1287;97516;-39
2022/10/18 10:42:19;;;;;;;11.40;7.30;;;;;;;21.31;52.45;99404.42;420885;1293;110003;-39
2022/10/18 10:52:30;;;;;;;14.10;7.80;;;;;;;21.36;52.29;99386.58;420888;1296;110616;-41
2022/10/18 11:02:38;;;;;;;13.70;8.10;;;;;;;21.25;52.19;99371.77;420744;1291;97748;-39
2022/10/18 11:12:45;;;;;;;10.70;7.70;;;;;;;21.22;52.17;99356.92;420899;1301;109342;-40
2022/10/18 11:33:15;;;;;;;12.80;8.30;;;;;;;21.07;51.59;99331.07;420763;1297;111158;-41
2022/10/18 11:43:25;;;;;;;13.70;7.60;;;;;;;20.94;51.65;99316.38;420819;1299;108344;-40
2022/10/18 11:53:43;;;;;;;18.40;8.10;;;;;;;20.94;51.54;99303.52;420750;1299;97886;-41
2022/10/18 12:03:58;;;;;;;13.90;8.10;;;;;;;20.74;51.38;99293.89;420813;1295;111425;-40
2022/10/18 12:14:07;;;;;;;;;;;;;;;20.67;51.66;99274.92;420880;1292;108540;-40
2022/10/18 12:34:30;;;;;;;11.00;7.90;;;;;;;20.53;51.93;99243.99;420852;1289;110828;-41
2022/10/18 12:44:37;;;;;;;10.10;7.90;;;;;;;20.46;51.87;99225.10;420868;1291;108983;-41
2022/10/18 12:55:01;;;;;;;11.60;8.70;;;;;;;20.47;52.15;99216.34;420912;1283;97539;-42
2022/10/18 13:05:38;;;;;;;12.00;8.30;;;;;;;20.53;52.27;99214.34;421044;1290;110083;-40
2022/10/18 13:15:58;;;;;;;16.00;8.50;;;;;;;20.18;52.17;99198.40;420834;1289;108599;-41
2022/10/18 13:26:03;;;;;;;18.30;11.40;;;;;;;19.92;52.35;99182.55;420769;1289;96668;-40
2022/10/18 13:36:19;;;;;;;13.90;9.50;;;;;;;19.70;52.55;99174.09;420857;1295;110043;-40
2022/10/18 13:47:00;;;;;;;14.70;9.10;;;;;;;19.48;52.67;99174.64;420723;1286;107395;-41
2022/10/18 13:57:17;;;;;;;12.50;9.00;;;;;;;19.32;52.94;99161.33;420852;1291;97870;-40
2022/10/18 14:07:28;;;;;;;13.80;8.80;;;;;;;19.40;53.22;99146.71;420998;1291;110072;-39
2022/10/18 14:17:35;;;;;;;15.80;10.20;;;;;;;19.52;53.26;99126.98;420893;1289;106678;-40
2022/10/18 14:27:42;;;;;;;20.00;10.30;;;;;;;19.53;53.52;99117.13;421146;1298;97817;-41
2022/10/18 14:37:52;;;;;;;15.30;11.70;;;;;;;19.35;53.68;99103.52;420863;1298;97925;-41
2022/10/18 14:48:07;;;;;;;13.70;10.20;;;;;;;19.11;53.74;99096.92;421095;1290;109045;-41
2022/10/18 14:58:17;;;;;;;22.10;11.80;;;;;;;18.88;54.24;99083.95;420778;1298;107947;-41
2022/10/18 15:08:26;;;;;;;22.20;13.40;;;;;;;18.70;54.50;99072.86;420764;1291;97513;-41
2022/10/18 15:18:33;;;;;;;23.90;13.50;;;;;;;18.46;54.88;99059.86;420539;1289;497152;-41
2022/10/18 15:38:50;;;;;;;18.00;12.50;;;;;;;17.97;55.52;99066.70;421665;1298;97889;-41
2022/10/18 15:48:59;;;;;;;22.00;13.20;;;;;;;17.79;55.96;99064.43;421473;1290;97645;-40
2022/10/18 15:59:22;;;;;;;52.50;36.00;;;;;;;17.62;56.37;99064.80;421130;1289;110020;-41
2022/10/18 16:09:30;;;;;;;33.60;22.20;;;;;;;17.46;56.58;99072.25;421093;1287;108848;-41
2022/10/18 16:19:37;;;;;;;28.20;17.90;;;;;;;17.32;57.05;99086.55;420744;1289;97918;-41
2022/10/18 16:29:43;;;;;;;26.10;16.40;;;;;;;17.25;57.48;99099.54;420988;1291;98619;-40
2022/10/18 16:39:50;;;;;;;23.90;15.20;;;;;;;17.20;57.94;99112.84;420876;1291;110813;-41
2022/10/18 16:49:58;;;;;;;25.20;15.80;;;;;;;17.17;58.13;99110.85;420709;1298;108442;-40
2022/10/18 17:00:19;;;;;;;26.20;16.80;;;;;;;17.16;58.64;99115.92;420791;1294;97995;-41
2022/10/18 17:10:26;;;;;;;26.50;15.30;;;;;;;17.15;58.76;99128.95;421074;1297;97484;-39
2022/10/18 17:20:33;;;;;;;29.50;15.60;;;;;;;17.16;59.12;99137.46;420965;1284;110843;-39
2022/10/18 17:30:41;;;;;;;25.30;19.00;;;;;;;17.11;60.50;99163.30;420930;1298;108588;-39
2022/10/18 17:40:51;;;;;;;24.10;12.50;;;;;;;16.72;62.97;99196.26;420892;1298;97495;-39
2022/10/18 17:50:58;;;;;;;10.30;5.90;;;;;;;16.05;65.59;99225.35;421044;1289;109654;-39
2022/10/18 18:01:10;;;;;;;6.40;4.60;;;;;;;15.40;67.40;99251.63;420875;1294;107681;-41
2022/10/18 18:11:18;;;;;;;4.20;2.60;;;;;;;14.82;69.11;99263.84;421121;1291;97755;-41
2022/10/18 18:21:25;;;;;;;3.10;2.00;;;;;;;14.26;70.69;99269.13;420957;1297;107307;-41
2022/10/18 18:31:34;;;;;;;2.60;2.40;;;;;;;13.95;71.83;99278.58;421099;1298;96668;-41
2022/10/18 18:41:47;;;;;;;4.80;3.30;;;;;;;13.75;72.55;99279.39;420771;1291;109346;-40
2022/10/18 18:51:54;;;;;;;2.80;2.20;;;;;;;13.66;72.85;99271.59;420876;1298;106955;-39
2022/10/18 19:02:01;;;;;;;5.20;3.50;;;;;;;13.74;72.96;99281.08;421106;1294;97928;-40
2022/10/18 19:12:09;;;;;;;3.70;2.90;;;;;;;13.79;72.86;99302.25;421157;1292;109135;-40
2022/10/18 19:22:16;;;;;;;4.40;2.90;;;;;;;13.75;73.11;99321.60;421069;1290;97488;-41
2022/10/18 19:32:22;;;;;;;6.10;3.70;;;;;;;13.61;73.45;99340.95;420924;1292;110241;-39
2022/10/18 19:42:30;;;;;;;8.60;4.60;;;;;;;13.57;73.71;99347.47;421082;1288;107941;-41
2022/10/18 19:52:39;;;;;;;6.70;4.80;;;;;;;13.50;74.07;99360.05;422171;1288;97545;-38
2022/10/18 20:02:46;;;;;;;6.60;4.90;;;;;;;13.44;74.49;99360.91;421822;1296;108510;-42
2022/10/18 20:12:54;;;;;;;6.80;4.80;;;;;;;13.41;74.65;99364.73;421069;1296;96700;-40
2022/10/18 20:23:02;;;;;;;8.40;5.10;;;;;;;13.37;74.79;99369.52;420804;1294;109845;-40
2022/10/18 20:33:09;;;;;;;9.40;5.70;;;;;;;13.35;74.87;99373.05;420938;1290;107804;-39
2022/10/18 20:43:16;;;;;;;5.30;4.20;;;;;;;13.36;75.24;99374.75;420968;1281;98021;-39
2022/10/18 20:53:23;;;;;;;5.40;3.90;;;;;;;13.41;75.34;99369.35;421041;1298;109347;-40
2022/10/18 21:03:30;;;;;;;7.40;5.30;;;;;;;13.36;75.28;99370.55;421281;1296;97482;-40
2022/10/18 21:13:39;;;;;;;7.00;5.50;;;;;;;13.27;75.59;99366.63;421888;1296;111077;-40
2022/10/18 21:23:45;;;;;;;5.60;4.70;;;;;;;13.28;75.78;99358.67;421826;1296;108061;-40
2022/10/18 21:33:52;;;;;;;7.90;5.70;;;;;;;13.22;75.83;99359.77;421528;1285;97909;-40
2022/10/18 21:44:00;;;;;;;8.00;5.50;;;;;;;13.13;75.97;99356.95;421985;1288;109954;-38
2022/10/18 21:54:14;;;;;;;11.00;7.30;;;;;;;13.07;76.20;99368.13;421853;1296;106782;-39
2022/10/18 22:14:25;;;;;;;5.60;4.80;;;;;;;13.06;76.36;99354.61;422059;1296;107707;-39
2022/10/18 22:24:32;;;;;;;7.60;5.90;;;;;;;12.98;76.49;99349.40;421996;1296;97945;-39
2022/10/18 22:34:40;;;;;;;7.30;6.40;;;;;;;12.99;76.86;99345.97;421922;1298;110007;-39
2022/10/18 22:44:47;;;;;;;10.80;5.90;;;;;;;12.99;76.98;99337.47;421710;1296;107403;-39
2022/10/18 22:54:54;;;;;;;7.70;5.40;;;;;;;12.93;77.25;99317.59;421849;1289;97910;-41
2022/10/18 23:05:01;;;;;;;8.80;7.00;;;;;;;12.95;77.46;99313.65;422027;1296;109426;-39
2022/10/18 23:15:10;;;;;;;10.00;6.60;;;;;;;13.02;77.55;99313.30;421646;1296;97877;-40
2022/10/18 23:25:16;;;;;;;7.30;6.20;;;;;;;13.04;77.74;99315.36;421779;1298;109905;-40
2022/10/18 23:35:23;;;;;;;7.90;5.80;;;;;;;13.01;77.98;99314.69;421893;1296;108533;-40
2022/10/18 23:45:30;;;;;;;5.90;5.30;;;;;;;13.06;78.17;99306.41;421903;1288;97487;-40
2022/10/18 23:55:37;;;;;;;5.20;4.60;;;;;;;13.06;78.28;99302.63;421995;1296;107926;-40
